createdAt,value
2022-12-25T00:02:08.239Z,7.67
2022-12-25T00:04:36.718Z,7.57
2022-12-25T00:07:04.009Z,7.67
2022-12-25T00:09:31.158Z,7.90
2022-12-25T00:11:58.245Z,8.60
2022-12-25T00:14:25.400Z,10.27
2022-12-25T00:16:52.512Z,8.47
2022-12-25T00:19:19.607Z,7.07
2022-12-25T00:21:48.065Z,8.60
2022-12-25T00:24:15.200Z,8.10
2022-12-25T00:26:42.301Z,8.10
2022-12-25T00:29:12.657Z,7.57
2022-12-25T00:31:40.014Z,6.50
2022-12-25T00:34:07.154Z,7.80
2022-12-25T00:36:41.196Z,7.23
2022-12-25T00:39:10.746Z,6.33
2022-12-25T00:41:37.881Z,6.17
2022-12-25T00:44:05.182Z,6.87
2022-12-25T00:46:32.388Z,7.20
2022-12-25T00:48:59.545Z,6.70
2022-12-25T00:51:26.928Z,6.10
2022-12-25T00:53:54.892Z,5.63
2022-12-25T00:56:23.386Z,6.30
2022-12-25T00:58:50.523Z,5.20
2022-12-25T01:01:18.437Z,5.60
2022-12-25T01:03:46.054Z,6.20
2022-12-25T01:06:13.162Z,5.87
2022-12-25T01:08:41.325Z,6.77
2022-12-25T01:11:09.170Z,6.33
2022-12-25T01:13:38.371Z,6.00
2022-12-25T01:16:06.265Z,7.07
2022-12-25T01:18:33.456Z,6.40
2022-12-25T01:21:05.855Z,6.27
2022-12-25T01:23:32.993Z,5.03
2022-12-25T01:26:03.751Z,5.27
2022-12-25T01:28:30.866Z,5.67
2022-12-25T01:30:59.351Z,5.03
2022-12-25T01:33:26.485Z,6.77
2022-12-25T01:35:53.578Z,4.27
2022-12-25T01:38:20.703Z,5.43
2022-12-25T01:40:47.821Z,5.20
2022-12-25T01:43:22.788Z,5.70
2022-12-25T01:45:50.058Z,4.60
2022-12-25T01:48:20.248Z,5.13
2022-12-25T01:50:49.190Z,5.20
2022-12-25T01:53:16.394Z,6.90
2022-12-25T01:55:44.820Z,5.13
2022-12-25T01:58:12.032Z,4.70
2022-12-25T02:00:39.260Z,4.33
2022-12-25T02:03:06.456Z,5.33
2022-12-25T02:05:35.453Z,4.77
2022-12-25T02:08:04.848Z,5.53
2022-12-25T02:10:31.998Z,5.27
2022-12-25T02:12:59.373Z,5.23
2022-12-25T02:15:29.815Z,5.43
2022-12-25T02:17:59.674Z,5.00
2022-12-25T02:20:45.481Z,5.70
2022-12-25T02:23:31.414Z,5.10
2022-12-25T02:26:02.200Z,4.93
2022-12-25T02:28:33.155Z,4.80
2022-12-25T02:31:05.740Z,4.27
2022-12-25T02:33:41.541Z,5.27
2022-12-25T02:36:11.488Z,4.47
2022-12-25T02:38:39.390Z,4.00
2022-12-25T02:41:08.057Z,5.00
2022-12-25T02:43:39.485Z,5.07
2022-12-25T02:46:07.686Z,3.83
2022-12-25T02:48:36.999Z,4.67
2022-12-25T02:51:05.525Z,4.70
2022-12-25T02:53:33.626Z,4.03
2022-12-25T02:56:00.747Z,4.67
2022-12-25T02:58:28.540Z,4.87
2022-12-25T03:00:59.866Z,4.33
2022-12-25T03:03:29.894Z,4.13
2022-12-25T03:05:59.377Z,5.20
2022-12-25T03:08:28.552Z,4.57
2022-12-25T03:10:57.986Z,4.20
2022-12-25T03:13:28.218Z,4.03
2022-12-25T03:15:56.749Z,3.83
2022-12-25T03:18:24.875Z,3.60
2022-12-25T03:20:52.105Z,4.07
2022-12-25T03:23:20.895Z,3.70
2022-12-25T03:25:48.022Z,4.30
2022-12-25T03:28:15.182Z,4.37
2022-12-25T03:30:44.131Z,4.07
2022-12-25T03:33:43.230Z,4.43
2022-12-25T03:36:06.733Z,5.10
2022-12-25T03:38:39.022Z,4.47
2022-12-25T03:41:10.693Z,4.07
2022-12-25T03:43:42.280Z,4.53
2022-12-25T03:46:11.718Z,3.50
2022-12-25T03:48:41.428Z,3.60
2022-12-25T03:51:10.559Z,4.30
2022-12-25T03:53:40.068Z,4.30
2022-12-25T03:56:08.257Z,3.80
2022-12-25T03:58:35.399Z,4.50
2022-12-25T04:01:02.586Z,4.10
2022-12-25T04:03:29.799Z,4.37
2022-12-25T04:05:58.291Z,3.60
2022-12-25T04:08:25.396Z,5.07
2022-12-25T04:10:52.623Z,4.07
2022-12-25T04:13:19.713Z,3.73
2022-12-25T04:15:46.900Z,3.50
2022-12-25T04:18:14.060Z,3.53
2022-12-25T04:20:41.161Z,3.13
2022-12-25T04:23:09.607Z,3.80
2022-12-25T04:25:36.700Z,3.80
2022-12-25T04:28:04.354Z,4.03
2022-12-25T04:30:31.406Z,3.27
2022-12-25T04:32:58.628Z,4.23
2022-12-25T04:35:25.733Z,4.10
2022-12-25T04:37:52.911Z,3.37
2022-12-25T04:40:21.344Z,3.30
2022-12-25T04:42:50.119Z,3.20
2022-12-25T04:45:17.310Z,3.23
2022-12-25T04:47:44.439Z,3.33
2022-12-25T04:50:11.559Z,3.07
2022-12-25T04:52:39.484Z,3.90
2022-12-25T04:55:07.449Z,5.03
2022-12-25T04:57:35.901Z,5.57
2022-12-25T05:00:03.100Z,3.37
2022-12-25T05:02:30.427Z,3.70
2022-12-25T05:04:57.704Z,3.80
2022-12-25T05:07:24.837Z,3.90
2022-12-25T05:09:51.970Z,3.43
2022-12-25T05:12:19.077Z,3.23
2022-12-25T05:14:47.569Z,3.30
2022-12-25T05:17:14.697Z,4.23
2022-12-25T05:19:41.837Z,4.03
2022-12-25T05:22:08.943Z,6.07
2022-12-25T05:24:36.106Z,4.70
2022-12-25T05:27:03.217Z,3.97
2022-12-25T05:29:30.365Z,4.20
2022-12-25T05:31:58.799Z,5.00
2022-12-25T05:34:25.937Z,4.90
2022-12-25T05:36:53.018Z,4.17
2022-12-25T05:39:20.394Z,4.20
2022-12-25T05:41:47.480Z,4.23
2022-12-25T05:44:14.599Z,3.90
2022-12-25T05:46:41.805Z,4.77
2022-12-25T05:49:10.285Z,4.70
2022-12-25T05:51:37.388Z,4.50
2022-12-25T05:54:04.767Z,4.30
2022-12-25T05:56:31.880Z,4.30
2022-12-25T05:58:58.955Z,5.63
2022-12-25T06:01:27.382Z,4.37
2022-12-25T06:03:54.706Z,4.50
2022-12-25T06:06:23.194Z,4.63
2022-12-25T06:08:50.299Z,5.83
2022-12-25T06:11:17.487Z,4.03
2022-12-25T06:13:44.592Z,4.30
2022-12-25T06:16:12.378Z,4.50
2022-12-25T06:18:40.459Z,4.43
2022-12-25T06:21:08.219Z,4.03
2022-12-25T06:23:37.257Z,4.33
2022-12-25T06:26:05.288Z,4.30
2022-12-25T06:28:32.423Z,4.60
2022-12-25T06:30:59.565Z,3.80
2022-12-25T06:33:26.686Z,5.07
2022-12-25T06:35:53.810Z,3.70
2022-12-25T06:38:21.551Z,3.90
2022-12-25T06:40:50.005Z,4.00
2022-12-25T06:43:17.124Z,4.10
2022-12-25T06:45:44.317Z,4.60
2022-12-25T06:48:11.430Z,3.80
2022-12-25T06:50:42.816Z,4.30
2022-12-25T06:53:09.970Z,3.53
2022-12-25T06:55:37.063Z,4.27
2022-12-25T06:58:05.526Z,4.13
2022-12-25T07:00:32.623Z,3.33
2022-12-25T07:02:59.915Z,3.27
2022-12-25T07:05:27.122Z,3.97
2022-12-25T07:07:54.249Z,3.27
2022-12-25T07:10:21.321Z,3.30
2022-12-25T07:12:48.436Z,3.50
2022-12-25T07:15:17.046Z,3.10
2022-12-25T07:17:44.159Z,3.63
2022-12-25T07:20:11.429Z,3.40
2022-12-25T07:22:38.551Z,2.27
2022-12-25T07:25:06.120Z,2.90
2022-12-25T07:27:33.356Z,2.70
2022-12-25T07:30:00.461Z,3.00
2022-12-25T07:32:31.877Z,3.03
2022-12-25T07:34:58.993Z,3.70
2022-12-25T07:37:26.261Z,3.60
2022-12-25T07:39:53.382Z,3.60
2022-12-25T07:42:25.027Z,3.87
2022-12-25T07:44:54.644Z,2.63
2022-12-25T07:47:21.780Z,2.90
2022-12-25T07:49:50.189Z,2.93
2022-12-25T07:52:17.305Z,3.27
2022-12-25T07:54:44.432Z,4.77
2022-12-25T07:57:11.542Z,3.07
2022-12-25T07:59:38.687Z,3.20
2022-12-25T08:02:06.203Z,3.13
2022-12-25T08:04:33.470Z,3.70
2022-12-25T08:07:01.945Z,3.40
2022-12-25T08:09:29.056Z,3.20
2022-12-25T08:11:56.173Z,3.50
2022-12-25T08:14:23.305Z,3.50
2022-12-25T08:16:50.441Z,3.63
2022-12-25T08:19:17.545Z,3.80
2022-12-25T08:21:44.654Z,4.10
2022-12-25T08:24:13.100Z,3.33
2022-12-25T08:26:40.223Z,4.30
2022-12-25T08:29:07.355Z,3.53
2022-12-25T08:31:34.719Z,4.57
2022-12-25T08:34:03.160Z,3.60
2022-12-25T08:36:30.262Z,3.77
2022-12-25T08:39:02.525Z,4.00
2022-12-25T08:41:31.715Z,4.13
2022-12-25T08:43:59.070Z,3.50
2022-12-25T08:46:26.262Z,3.67
2022-12-25T08:48:53.652Z,3.13
2022-12-25T08:51:21.725Z,3.93
2022-12-25T08:53:49.578Z,4.07
2022-12-25T08:56:16.736Z,4.23
2022-12-25T08:58:45.273Z,4.57
2022-12-25T09:01:13.241Z,3.60
2022-12-25T09:03:40.513Z,3.27
2022-12-25T09:06:08.618Z,3.23
2022-12-25T09:08:36.263Z,4.93
2022-12-25T09:11:03.964Z,4.20
2022-12-25T09:13:31.189Z,4.80
2022-12-25T09:15:59.737Z,4.80
2022-12-25T09:18:26.982Z,4.77
2022-12-25T09:21:00.596Z,4.90
2022-12-25T09:23:28.091Z,4.37
2022-12-25T09:25:55.297Z,4.37
2022-12-25T09:28:22.479Z,4.53
2022-12-25T09:30:50.720Z,6.10
2022-12-25T09:33:19.187Z,4.00
2022-12-25T09:35:53.251Z,5.37
2022-12-25T09:38:20.363Z,4.63
2022-12-25T09:40:47.500Z,5.73
2022-12-25T09:43:16.909Z,5.93
2022-12-25T09:45:44.537Z,4.57
2022-12-25T09:48:13.786Z,4.20
2022-12-25T09:50:44.256Z,4.10
2022-12-25T09:53:15.449Z,6.50
2022-12-25T09:55:44.911Z,5.03
2022-12-25T09:58:12.879Z,5.03
2022-12-25T10:00:42.035Z,4.73
2022-12-25T10:03:18.383Z,4.70
2022-12-25T10:05:53.529Z,5.30
2022-12-25T10:08:25.504Z,5.30
2022-12-25T10:10:55.777Z,5.63
2022-12-25T10:13:30.379Z,6.10
2022-12-25T10:16:04.434Z,5.37
2022-12-25T10:18:46.449Z,6.27
2022-12-25T10:21:16.400Z,5.37
2022-12-25T10:23:44.977Z,7.37
2022-12-25T10:26:15.073Z,6.00
2022-12-25T10:28:43.966Z,7.27
2022-12-25T10:31:18.355Z,5.87
2022-12-25T10:33:45.558Z,6.53
2022-12-25T10:36:12.664Z,6.17
2022-12-25T10:38:41.129Z,5.63
2022-12-25T10:41:14.244Z,6.97
2022-12-25T10:43:44.186Z,6.77
2022-12-25T10:46:12.176Z,8.20
2022-12-25T10:48:40.513Z,8.13
2022-12-25T10:51:07.841Z,8.90
2022-12-25T10:53:38.655Z,8.20
2022-12-25T10:56:07.823Z,8.93
2022-12-25T10:58:34.973Z,7.87
2022-12-25T11:01:03.464Z,8.00
2022-12-25T11:03:32.174Z,9.30
2022-12-25T11:05:59.478Z,9.20
2022-12-25T11:08:28.013Z,8.90
2022-12-25T11:10:56.974Z,8.37
2022-12-25T11:13:26.505Z,7.60
2022-12-25T11:16:03.343Z,8.83
2022-12-25T11:18:32.896Z,6.80
2022-12-25T11:21:00.788Z,7.73
2022-12-25T11:23:28.916Z,7.50
2022-12-25T11:25:57.087Z,8.10
2022-12-25T11:28:26.328Z,7.90
2022-12-25T11:30:56.449Z,7.40
2022-12-25T11:33:27.602Z,7.53
2022-12-25T11:35:56.108Z,6.57
2022-12-25T11:38:23.241Z,6.40
2022-12-25T11:40:51.734Z,5.80
2022-12-25T11:43:21.681Z,6.67
2022-12-25T11:45:53.091Z,6.70
2022-12-25T11:48:22.025Z,5.77
2022-12-25T11:50:52.323Z,5.90
2022-12-25T11:53:22.199Z,5.67
2022-12-25T11:55:50.283Z,5.70
2022-12-25T11:58:18.789Z,6.00
2022-12-25T12:00:47.099Z,6.27
2022-12-25T12:03:17.536Z,5.47
2022-12-25T12:05:45.736Z,6.00
2022-12-25T12:08:12.987Z,5.80
2022-12-25T12:10:46.028Z,5.60
2022-12-25T12:13:28.054Z,5.90
2022-12-25T12:15:55.239Z,5.83
2022-12-25T12:18:24.320Z,6.97
2022-12-25T12:20:58.296Z,6.07
2022-12-25T12:23:26.085Z,6.10
2022-12-25T12:25:53.659Z,6.17
2022-12-25T12:28:22.057Z,6.07
2022-12-25T12:30:56.792Z,6.33
2022-12-25T12:33:26.755Z,5.50
2022-12-25T12:35:53.983Z,5.90
2022-12-25T12:38:23.043Z,6.67
2022-12-25T12:40:53.189Z,6.13
2022-12-25T12:43:32.020Z,7.13
2022-12-25T12:46:01.935Z,6.43
2022-12-25T12:48:30.596Z,6.47
2022-12-25T12:51:04.297Z,5.97
2022-12-25T12:53:32.106Z,6.83
2022-12-25T12:56:09.805Z,6.70
2022-12-25T12:58:38.181Z,6.00
2022-12-25T13:01:12.029Z,6.40
2022-12-25T13:03:55.915Z,6.67
2022-12-25T13:06:27.695Z,6.30
2022-12-25T13:09:00.816Z,7.53
2022-12-25T13:11:29.057Z,6.30
2022-12-25T13:13:57.607Z,6.50
2022-12-25T13:16:26.966Z,6.63
2022-12-25T13:18:56.446Z,6.67
2022-12-25T13:21:24.435Z,8.20
2022-12-25T13:23:56.287Z,7.20
2022-12-25T13:26:23.371Z,7.47
2022-12-25T13:28:50.517Z,7.80
2022-12-25T13:31:18.632Z,9.10
2022-12-25T13:33:46.848Z,7.93
2022-12-25T13:36:15.320Z,7.67
2022-12-25T13:38:45.797Z,8.07
2022-12-25T13:41:17.004Z,8.60
2022-12-25T13:43:44.959Z,8.00
2022-12-25T13:46:13.139Z,7.77
2022-12-25T13:48:40.372Z,8.30
2022-12-25T13:51:14.411Z,8.70
2022-12-25T13:53:42.910Z,8.30
2022-12-25T13:56:13.121Z,8.13
2022-12-25T13:58:40.282Z,8.10
2022-12-25T14:01:07.494Z,8.50
2022-12-25T14:03:37.629Z,8.67
2022-12-25T14:06:06.791Z,8.60
2022-12-25T14:08:35.675Z,7.60
2022-12-25T14:11:05.911Z,8.27
2022-12-25T14:13:36.162Z,9.70
2022-12-25T14:16:03.306Z,8.73
2022-12-25T14:18:30.584Z,9.10
2022-12-25T14:20:59.299Z,8.80
2022-12-25T14:23:26.670Z,8.13
2022-12-25T14:25:53.960Z,8.00
2022-12-25T14:28:24.365Z,8.03
2022-12-25T14:30:51.623Z,8.50
2022-12-25T14:33:20.655Z,8.90
2022-12-25T14:35:48.187Z,9.17
2022-12-25T14:38:19.695Z,10.50
2022-12-25T14:40:46.803Z,9.07
2022-12-25T14:43:22.581Z,9.17
2022-12-25T14:45:56.094Z,9.30
2022-12-25T14:48:25.597Z,9.10
2022-12-25T14:50:55.534Z,9.00
2022-12-25T14:53:23.807Z,8.67
2022-12-25T14:55:52.549Z,10.33
2022-12-25T14:58:21.793Z,9.20
2022-12-25T15:00:54.190Z,9.40
2022-12-25T15:03:26.909Z,9.00
2022-12-25T15:06:00.947Z,8.90
2022-12-25T15:08:28.232Z,8.83
2022-12-25T15:11:01.795Z,10.43
2022-12-25T15:13:30.022Z,9.60
2022-12-25T15:15:59.095Z,8.73
2022-12-25T15:18:31.197Z,8.47
2022-12-25T15:20:58.435Z,9.60
2022-12-25T15:23:25.647Z,8.80
2022-12-25T15:25:52.838Z,8.07
2022-12-25T15:28:19.981Z,7.67
2022-12-25T15:30:47.350Z,8.33
2022-12-25T15:33:15.232Z,9.33
2022-12-25T15:35:44.026Z,9.90
2022-12-25T15:38:11.497Z,9.80
2022-12-25T15:40:39.074Z,10.20
2022-12-25T15:43:14.504Z,10.57
2022-12-25T15:45:53.658Z,10.27
2022-12-25T15:48:20.795Z,10.20
2022-12-25T15:50:49.254Z,9.70
2022-12-25T15:53:16.462Z,9.17
2022-12-25T15:55:43.628Z,9.57
2022-12-25T15:58:12.607Z,10.20
2022-12-25T16:00:39.705Z,9.00
2022-12-25T16:03:06.945Z,9.50
2022-12-25T16:05:34.246Z,8.67
2022-12-25T16:08:02.721Z,8.50
2022-12-25T16:10:34.898Z,9.47
2022-12-25T16:13:05.444Z,8.83
2022-12-25T16:15:32.709Z,8.77
2022-12-25T16:17:59.937Z,7.60
2022-12-25T16:20:27.018Z,8.90
2022-12-25T16:22:54.126Z,9.83
2022-12-25T16:25:22.543Z,7.80
2022-12-25T16:27:49.676Z,8.00
2022-12-25T16:30:17.893Z,7.50
2022-12-25T16:32:45.580Z,7.97
2022-12-25T16:35:12.703Z,7.67
2022-12-25T16:37:39.847Z,7.60
2022-12-25T16:40:07.988Z,8.10
2022-12-25T16:42:36.434Z,6.90
2022-12-25T16:45:03.631Z,7.80
2022-12-25T16:47:30.747Z,6.53
2022-12-25T16:49:57.858Z,7.33
2022-12-25T16:52:24.938Z,6.80
2022-12-25T16:54:52.082Z,7.83
2022-12-25T16:57:19.177Z,7.07
2022-12-25T16:59:47.865Z,6.70
2022-12-25T17:02:15.720Z,6.63
2022-12-25T17:04:43.405Z,6.80
2022-12-25T17:07:10.766Z,7.80
2022-12-25T17:09:43.858Z,7.67
2022-12-25T17:12:11.566Z,7.13
2022-12-25T17:14:38.872Z,7.50
2022-12-25T17:17:07.393Z,7.07
2022-12-25T17:19:34.518Z,7.80
2022-12-25T17:22:01.607Z,6.90
2022-12-25T17:24:28.742Z,7.77
2022-12-25T17:26:55.908Z,6.63
2022-12-25T17:29:23.217Z,7.63
2022-12-25T17:31:50.519Z,7.03
2022-12-25T17:34:19.105Z,7.53
2022-12-25T17:36:46.239Z,6.73
2022-12-25T17:39:13.451Z,7.90
2022-12-25T17:41:40.582Z,6.70
2022-12-25T17:44:07.723Z,6.93
2022-12-25T17:46:34.843Z,8.00
2022-12-25T17:49:02.353Z,7.80
2022-12-25T17:51:31.307Z,7.23
2022-12-25T17:54:00.092Z,7.50
2022-12-25T17:56:27.238Z,6.67
2022-12-25T17:58:55.063Z,7.53
2022-12-25T18:01:23.356Z,6.90
2022-12-25T18:03:50.819Z,7.40
2022-12-25T18:06:18.972Z,7.17
2022-12-25T18:08:48.053Z,7.13
2022-12-25T18:11:16.143Z,6.90
2022-12-25T18:13:43.293Z,7.17
2022-12-25T18:16:10.664Z,6.60
2022-12-25T18:18:37.822Z,6.77
2022-12-25T18:21:05.365Z,7.10
2022-12-25T18:23:32.810Z,6.27
2022-12-25T18:26:02.722Z,6.60
2022-12-25T18:28:29.957Z,6.93
2022-12-25T18:30:57.232Z,7.37
2022-12-25T18:33:24.459Z,7.03
2022-12-25T18:35:56.806Z,7.13
2022-12-25T18:38:24.004Z,6.83
2022-12-25T18:40:51.157Z,7.50
2022-12-25T18:43:19.636Z,6.83
2022-12-25T18:45:46.773Z,6.53
2022-12-25T18:48:13.928Z,6.70
2022-12-25T18:50:41.018Z,6.57
2022-12-25T18:53:08.265Z,6.10
2022-12-25T18:55:36.114Z,6.27
2022-12-25T18:58:03.225Z,6.50
2022-12-25T19:00:31.753Z,6.17
2022-12-25T19:02:59.648Z,7.43
2022-12-25T19:05:27.089Z,6.57
2022-12-25T19:07:54.203Z,6.30
2022-12-25T19:10:21.327Z,7.07
2022-12-25T19:12:48.455Z,6.10
2022-12-25T19:15:15.642Z,6.20
2022-12-25T19:17:44.074Z,6.37
2022-12-25T19:20:11.827Z,6.60
2022-12-25T19:22:38.943Z,6.80
2022-12-25T19:25:06.701Z,6.50
2022-12-25T19:27:33.852Z,6.67
2022-12-25T19:30:00.945Z,7.57
2022-12-25T19:32:28.049Z,7.40
2022-12-25T19:34:56.480Z,8.63
2022-12-25T19:37:23.580Z,7.93
2022-12-25T19:39:50.688Z,6.43
2022-12-25T19:42:17.797Z,6.20
2022-12-25T19:44:44.864Z,5.30
2022-12-25T19:47:11.995Z,6.10
2022-12-25T19:49:40.659Z,5.80
2022-12-25T19:52:09.734Z,5.20
2022-12-25T19:54:36.816Z,5.83
2022-12-25T19:57:04.023Z,6.00
2022-12-25T19:59:31.229Z,5.90
2022-12-25T20:01:58.550Z,4.80
2022-12-25T20:04:25.806Z,4.20
2022-12-25T20:06:52.869Z,4.43
2022-12-25T20:09:21.909Z,4.87
2022-12-25T20:11:49.487Z,4.83
2022-12-25T20:14:17.170Z,4.83
2022-12-25T20:16:44.380Z,5.20
2022-12-25T20:19:12.269Z,4.67
2022-12-25T20:21:39.377Z,4.93
2022-12-25T20:24:07.758Z,4.77
2022-12-25T20:26:36.517Z,4.40
2022-12-25T20:29:04.069Z,4.40
2022-12-25T20:31:31.939Z,4.20
2022-12-25T20:34:00.368Z,5.53
2022-12-25T20:36:31.206Z,4.20
2022-12-25T20:39:01.697Z,5.07
2022-12-25T20:41:29.857Z,5.63
2022-12-25T20:43:58.727Z,4.50
2022-12-25T20:46:27.145Z,5.07
2022-12-25T20:48:54.559Z,4.20
2022-12-25T20:51:22.631Z,4.60
2022-12-25T20:53:50.209Z,4.63
2022-12-25T20:56:18.443Z,4.20
2022-12-25T20:58:45.623Z,5.90
2022-12-25T21:01:15.447Z,4.13
2022-12-25T21:03:43.398Z,4.83
2022-12-25T21:06:10.890Z,5.10
2022-12-25T21:08:38.106Z,4.80
2022-12-25T21:11:05.639Z,4.50
2022-12-25T21:13:33.926Z,4.73
2022-12-25T21:16:01.073Z,4.73
2022-12-25T21:18:29.541Z,4.63
2022-12-25T21:20:58.103Z,4.70
2022-12-25T21:23:25.732Z,4.63
2022-12-25T21:25:52.893Z,5.33
2022-12-25T21:28:20.013Z,5.13
2022-12-25T21:30:47.180Z,4.70
2022-12-25T21:33:16.965Z,4.33
2022-12-25T21:35:45.798Z,4.27
2022-12-25T21:38:12.885Z,4.83
2022-12-25T21:40:40.000Z,4.43
2022-12-25T21:43:07.316Z,4.77
2022-12-25T21:45:34.430Z,4.50
2022-12-25T21:48:03.295Z,4.63
2022-12-25T21:50:34.660Z,4.67
2022-12-25T21:53:06.007Z,4.27
2022-12-25T21:55:33.424Z,4.17
2022-12-25T21:58:00.583Z,4.03
2022-12-25T22:00:27.712Z,4.43
2022-12-25T22:02:54.852Z,3.90
2022-12-25T22:05:22.039Z,4.87
2022-12-25T22:07:50.391Z,5.00
2022-12-25T22:10:18.858Z,4.93
2022-12-25T22:12:46.038Z,4.80
2022-12-25T22:15:13.181Z,5.10
2022-12-25T22:17:40.931Z,5.00
2022-12-25T22:20:09.195Z,5.87
2022-12-25T22:22:36.343Z,6.63
2022-12-25T22:25:04.668Z,5.50
2022-12-25T22:27:34.123Z,6.90
2022-12-25T22:30:01.277Z,6.60
2022-12-25T22:32:28.412Z,6.40
2022-12-25T22:34:55.594Z,6.90
2022-12-25T22:37:23.384Z,6.27
2022-12-25T22:39:50.459Z,6.70
2022-12-25T22:42:17.596Z,7.50
2022-12-25T22:44:46.160Z,7.37
2022-12-25T22:47:13.278Z,7.70
2022-12-25T22:49:40.388Z,7.10
2022-12-25T22:52:07.622Z,7.03
2022-12-25T22:54:34.711Z,8.07
2022-12-25T22:57:01.878Z,7.40
2022-12-25T22:59:29.067Z,7.03
2022-12-25T23:01:57.608Z,7.67
2022-12-25T23:04:26.553Z,7.40
2022-12-25T23:06:53.668Z,7.73
2022-12-25T23:09:24.667Z,7.10
2022-12-25T23:11:52.048Z,7.97
2022-12-25T23:14:19.136Z,7.63
2022-12-25T23:16:46.279Z,8.13
2022-12-25T23:19:14.759Z,6.97
2022-12-25T23:21:42.319Z,8.60
2022-12-25T23:24:09.885Z,8.20
2022-12-25T23:26:38.041Z,8.47
2022-12-25T23:29:05.153Z,7.90
2022-12-25T23:31:33.781Z,8.27
2022-12-25T23:34:01.648Z,7.70
2022-12-25T23:36:30.135Z,7.33
2022-12-25T23:39:00.377Z,7.10
2022-12-25T23:41:32.140Z,7.37
2022-12-25T23:43:59.291Z,7.07
2022-12-25T23:46:26.397Z,6.60
2022-12-25T23:48:53.516Z,7.00
2022-12-25T23:51:20.600Z,5.63
2022-12-25T23:53:49.709Z,5.13
2022-12-25T23:56:16.967Z,6.50
2022-12-25T23:58:44.249Z,6.50
